Portada
METAR-TAF:

METAR-TAF

Aeroports :

Uruguaiana, Rio Grande do Sul, Brasil

latitud: 29-47S, longitud: 057-02W, altitud: 74 m

Observació

L'informe es va fer fa 1 hora i 58 minuts, a les 22:00 UTC
Vent 9 kt del Nord-Est
Temperatura 23°C
Humitat 69%
Pressió 1010 hPa
Visibilitat 10 km o més
sense núvols per sota de 1500 mi sense presència de cumulonimbus.

METAR: SBUG 202200Z 04009KT CAVOK 23/17 Q1010

Hora: 20:58 (23:58 UTC)

Pronòstic

L'informe es va fer fa 8 hores i 28 minuts, a les 15:30 UTC
Pronòstic vàlid del 20 a les 18 UTC al 21 a les 06 UTC
Vent 8 kt del Nord/Nord-Est
Visibilitat 10 km o més
sense núvols per sota de 1500 mi sense presència de cumulonimbus.

TAF: SBUG 201530Z 2018/2106 03008KT CAVOK TX22/2018Z TN18/2106Z RMK PD W

Observacions i pronòstics meteorològics de més de 4000 aeroports (METAR i TAF).

Les estacions disponibles són els punts grocs i vermells al mapa.

Posi el ratolí al punt desitjat per veure el nom de l'estació.

Feu clic per veure les observacions i els pronòstics meteorològics.

Per canviar el mapa: feu clic els botons verds amb una creu de color negre per apropar; al botó verd amb un guió per allunyar la imatge; o en les fletxes verdes per a mapes adjacents.


METAR-TAF: